Time;durP1;ratioP1;P1;durP2;ratioP2;P2;SDS_P1;SDS_P2;PMS_P1;PMS_P2;Temp;Humidity;BMP_temperature;BMP_pressure;BME280_temperature;BME280_humidity;BME280_pressure;Samples;Min_cycle;Max_cycle;Signal;HPM_P1;HPM_P2
2024/01/11 00:02:26;;;;;;;23.10;14.00;;;-6.90;99.90;;;;;;5051386;28;21006;-57
2024/01/11 00:04:53;;;;;;;25.57;14.67;;;-6.90;99.90;;;;;;5051852;28;20466;-57
2024/01/11 00:07:19;;;;;;;23.90;14.10;;;-6.80;99.90;;;;;;5053109;28;20488;-57
2024/01/11 00:09:46;;;;;;;28.47;13.87;;;-6.80;99.90;;;;;;5051397;28;20493;-58
2024/01/11 00:12:13;;;;;;;22.40;14.10;;;-6.80;99.90;;;;;;5042487;28;20477;-57
2024/01/11 00:14:40;;;;;;;23.77;14.10;;;-6.80;99.90;;;;;;5050748;28;20523;-57
2024/01/11 00:17:06;;;;;;;25.57;14.37;;;-6.80;99.90;;;;;;5050373;28;20458;-58
2024/01/11 00:19:34;;;;;;;26.10;12.83;;;-6.80;99.90;;;;;;5050364;28;20465;-56
2024/01/11 00:22:01;;;;;;;20.27;13.13;;;-6.80;99.90;;;;;;5046094;28;20506;-57
2024/01/11 00:24:27;;;;;;;27.23;14.50;;;-6.80;99.90;;;;;;5050665;28;20454;-57
2024/01/11 00:26:54;;;;;;;22.30;14.77;;;-6.80;99.90;;;;;;5049199;28;20454;-57
2024/01/11 00:29:20;;;;;;;22.60;14.10;;;-6.80;99.90;;;;;;5055604;28;20457;-57
2024/01/11 00:31:47;;;;;;;24.80;13.10;;;-6.80;99.90;;;;;;5046924;28;20494;-58
2024/01/11 00:34:13;;;;;;;23.27;14.90;;;-6.70;99.90;;;;;;5047337;28;20583;-58
2024/01/11 00:36:41;;;;;;;19.97;13.10;;;-6.60;99.90;;;;;;5051311;28;20539;-57
2024/01/11 00:39:09;;;;;;;18.53;12.97;;;-6.60;99.90;;;;;;5051512;28;20454;-57
2024/01/11 00:41:35;;;;;;;17.83;12.63;;;-6.50;99.90;;;;;;5052393;28;20513;-57
2024/01/11 00:44:02;;;;;;;17.80;12.57;;;-6.50;99.90;;;;;;5048720;28;20493;-57
2024/01/11 00:46:28;;;;;;;17.40;13.20;;;-6.40;99.90;;;;;;5052030;28;20461;-57
2024/01/11 00:48:55;;;;;;;16.70;11.63;;;-6.40;99.90;;;;;;5049030;28;21012;-58
2024/01/11 00:51:21;;;;;;;19.63;13.07;;;-6.40;99.90;;;;;;5047034;28;20907;-58
2024/01/11 00:53:49;;;;;;;22.60;13.80;;;-6.50;99.90;;;;;;5050879;28;20871;-58
2024/01/11 00:56:16;;;;;;;21.20;13.20;;;-6.40;99.90;;;;;;5052486;28;20524;-57
2024/01/11 00:58:43;;;;;;;17.17;13.03;;;-6.40;99.90;;;;;;5042121;28;20465;-57
2024/01/11 01:01:10;;;;;;;19.70;13.93;;;-6.30;99.90;;;;;;5051280;28;20983;-58
2024/01/11 01:03:36;;;;;;;18.83;13.37;;;-6.20;99.90;;;;;;5049475;28;20512;-57
2024/01/11 01:06:03;;;;;;;21.57;12.50;;;-6.20;99.90;;;;;;5049895;28;20493;-57
2024/01/11 01:08:30;;;;;;;16.50;12.23;;;-6.20;99.90;;;;;;5047683;28;20454;-56
2024/01/11 01:10:58;;;;;;;16.20;12.30;;;-6.10;99.90;;;;;;5049512;28;20457;-57
2024/01/11 01:13:25;;;;;;;17.20;12.10;;;-6.10;99.90;;;;;;5043043;28;20500;-56
2024/01/11 01:15:51;;;;;;;21.07;14.00;;;-6.10;99.90;;;;;;5047184;28;20503;-57
2024/01/11 01:18:18;;;;;;;22.73;14.47;;;-6.00;99.90;;;;;;5051925;28;21195;-56
2024/01/11 01:20:44;;;;;;;17.70;13.40;;;-6.00;99.90;;;;;;5049152;28;20858;-56
2024/01/11 01:23:11;;;;;;;19.87;13.17;;;-6.00;99.90;;;;;;5056394;28;20465;-58
2024/01/11 01:25:38;;;;;;;26.63;12.97;;;-6.00;99.90;;;;;;5047610;28;20458;-57
2024/01/11 01:28:06;;;;;;;19.80;13.33;;;-6.00;99.90;;;;;;5048944;28;20494;-56
2024/01/11 01:30:32;;;;;;;16.13;11.47;;;-5.80;99.90;;;;;;5045096;28;20463;-56
2024/01/11 01:32:59;;;;;;;20.10;12.57;;;-5.80;99.90;;;;;;5049691;28;20441;-56
2024/01/11 01:35:26;;;;;;;20.20;12.00;;;-5.70;99.90;;;;;;5048210;28;20482;-56
2024/01/11 01:37:52;;;;;;;14.10;10.30;;;-5.70;99.90;;;;;;5050682;28;21071;-56
2024/01/11 01:40:19;;;;;;;16.73;10.67;;;-5.60;99.90;;;;;;5049015;28;20491;-57
2024/01/11 01:42:46;;;;;;;19.63;11.40;;;-5.60;99.90;;;;;;5051045;28;20442;-57
2024/01/11 01:45:16;;;;;;;14.80;10.20;;;-5.50;99.90;;;;;;5054196;28;20438;-57
2024/01/11 01:47:44;;;;;;;14.03;10.10;;;-5.40;99.90;;;;;;5053478;28;20465;-57
2024/01/11 01:50:12;;;;;;;11.77;9.17;;;-5.40;99.90;;;;;;5057096;28;20489;-56
2024/01/11 01:52:40;;;;;;;17.97;10.63;;;-5.40;98.00;;;;;;5054783;28;20855;-57
2024/01/11 01:55:10;;;;;;;14.23;9.90;;;-5.30;94.80;;;;;;5054343;28;20477;-57
2024/01/11 01:57:38;;;;;;;15.50;10.50;;;-5.30;94.30;;;;;;5054222;28;20442;-56
2024/01/11 02:00:06;;;;;;;45.07;10.27;;;-5.30;94.10;;;;;;5054326;28;20863;-57
2024/01/11 02:02:36;;;;;;;14.00;9.57;;;-5.20;89.00;;;;;;5054183;28;20497;-56
2024/01/11 02:05:02;;;;;;;13.50;8.27;;;-5.20;87.10;;;;;;5053476;28;20462;-58
2024/01/11 02:07:29;;;;;;;11.43;8.37;;;-5.20;88.60;;;;;;5050516;28;20876;-56
2024/01/11 02:09:56;;;;;;;12.37;9.10;;;-5.10;83.20;;;;;;5054157;28;20500;-57
2024/01/11 02:12:24;;;;;;;8.77;7.63;;;-5.10;84.70;;;;;;5051888;28;20481;-57
2024/01/11 02:14:51;;;;;;;7.50;6.70;;;-5.10;83.90;;;;;;5050387;28;20458;-55
2024/01/11 02:17:18;;;;;;;10.30;8.03;;;-5.00;78.40;;;;;;5052064;28;20999;-57
2024/01/11 02:19:46;;;;;;;9.63;6.37;;;-5.00;78.50;;;;;;5049120;28;20494;-56
2024/01/11 02:22:21;;;;;;;9.03;7.17;;;-5.00;74.90;;;;;;5052014;28;20563;-56
2024/01/11 02:24:49;;;;;;;11.27;8.07;;;-4.90;72.70;;;;;;5052934;28;20542;-58
2024/01/11 02:27:16;;;;;;;8.70;7.33;;;-4.90;73.00;;;;;;5053217;28;20493;-56
2024/01/11 02:29:42;;;;;;;15.30;7.43;;;-4.90;71.90;;;;;;5051827;28;20491;-58
2024/01/11 02:32:09;;;;;;;8.27;7.20;;;-4.90;72.50;;;;;;5063514;23;20924;-50
2024/01/11 02:34:37;;;;;;;14.53;7.07;;;-4.90;72.30;;;;;;5038982;28;20516;-50
2024/01/11 02:37:04;;;;;;;10.03;7.60;;;-4.90;72.00;;;;;;5040320;28;20544;-50
2024/01/11 02:39:31;;;;;;;14.33;7.80;;;-4.70;69.80;;;;;;5036610;28;20944;-50
2024/01/11 02:42:00;;;;;;;9.00;7.43;;;-4.80;70.50;;;;;;5037051;28;20522;-50
2024/01/11 02:44:27;;;;;;;10.03;8.00;;;-4.70;71.10;;;;;;5027040;28;20504;-50
2024/01/11 02:46:54;;;;;;;9.23;7.90;;;-4.70;70.00;;;;;;5025442;28;20459;-50
2024/01/11 02:49:20;;;;;;;13.70;9.27;;;-4.60;71.10;;;;;;5025531;28;20490;-50
2024/01/11 02:51:47;;;;;;;9.43;7.67;;;-4.60;72.30;;;;;;5028913;28;20510;-49
2024/01/11 02:54:13;;;;;;;9.53;8.40;;;-4.70;73.80;;;;;;5030049;28;20524;-49
2024/01/11 02:56:40;;;;;;;12.80;9.20;;;-4.70;72.30;;;;;;5027112;28;21035;-49
2024/01/11 02:59:08;;;;;;;13.30;8.57;;;-4.60;73.00;;;;;;5031581;28;20463;-50
2024/01/11 03:01:34;;;;;;;12.97;8.80;;;-4.70;74.80;;;;;;5027112;28;20995;-49
2024/01/11 03:04:01;;;;;;;14.17;9.90;;;-4.60;73.80;;;;;;5022629;28;20494;-51
2024/01/11 03:06:28;;;;;;;15.53;9.77;;;-4.60;75.10;;;;;;5028237;28;20471;-48
2024/01/11 03:08:54;;;;;;;18.60;11.97;;;-4.50;73.70;;;;;;5024793;28;20489;-49
2024/01/11 03:11:21;;;;;;;17.73;11.87;;;-4.60;75.10;;;;;;5028630;28;20482;-50
2024/01/11 03:13:47;;;;;;;17.37;11.83;;;-4.60;75.40;;;;;;5025057;28;20463;-51
2024/01/11 03:16:15;;;;;;;22.47;11.10;;;-4.50;74.00;;;;;;5026133;28;20512;-51
2024/01/11 03:18:42;;;;;;;19.97;12.20;;;-4.50;75.50;;;;;;5024087;28;20475;-49
2024/01/11 03:21:08;;;;;;;18.33;11.77;;;-4.50;74.30;;;;;;5022550;28;20481;-51
2024/01/11 03:23:35;;;;;;;19.63;12.27;;;-4.60;76.70;;;;;;5033810;28;20525;-51
2024/01/11 03:26:01;;;;;;;18.13;11.83;;;-4.50;74.30;;;;;;5027712;28;20556;-51
2024/01/11 03:28:28;;;;;;;18.90;12.13;;;-4.50;72.60;;;;;;5022450;28;20459;-49
2024/01/11 03:30:54;;;;;;;17.17;11.67;;;-4.50;72.20;;;;;;5036170;28;20490;-50
2024/01/11 03:33:22;;;;;;;21.10;11.83;;;-4.40;74.50;;;;;;5023865;28;20506;-49
2024/01/11 03:35:49;;;;;;;17.23;10.50;;;-4.40;72.10;;;;;;5022198;28;20522;-48
2024/01/11 03:38:16;;;;;;;21.70;11.20;;;-4.40;74.30;;;;;;5019826;28;20504;-51
2024/01/11 03:40:42;;;;;;;13.03;9.80;;;-4.40;75.10;;;;;;5017063;28;20448;-49
2024/01/11 03:43:09;;;;;;;16.57;11.33;;;-4.40;75.20;;;;;;5020810;28;20459;-51
2024/01/11 03:45:35;;;;;;;16.70;11.70;;;-4.40;75.80;;;;;;5029776;28;20573;-50
2024/01/11 03:48:02;;;;;;;19.07;11.33;;;-4.40;76.00;;;;;;5022172;28;20471;-50
2024/01/11 03:50:30;;;;;;;15.20;10.47;;;-4.40;77.00;;;;;;5032315;28;20431;-49
2024/01/11 03:52:57;;;;;;;16.60;10.17;;;-4.50;79.90;;;;;;5029481;28;20823;-49
2024/01/11 03:55:24;;;;;;;15.60;10.93;;;-4.40;76.30;;;;;;5019925;28;20458;-51
2024/01/11 03:57:52;;;;;;;15.53;10.47;;;-4.30;75.10;;;;;;5022845;28;21003;-50
2024/01/11 04:00:19;;;;;;;18.13;10.63;;;-4.30;77.30;;;;;;5021681;28;20447;-49
2024/01/11 04:02:46;;;;;;;17.00;10.87;;;-4.40;83.40;;;;;;5019383;28;21041;-51
2024/01/11 04:05:12;;;;;;;16.00;10.23;;;-4.30;78.80;;;;;;5026882;28;20863;-50
2024/01/11 04:07:40;;;;;;;22.77;10.17;;;-4.30;79.90;;;;;;5024978;28;20459;-50
2024/01/11 04:10:09;;;;;;;13.70;10.20;;;-4.30;79.80;;;;;;5030258;28;20990;-50
2024/01/11 04:12:36;;;;;;;16.90;11.30;;;-4.30;80.30;;;;;;5027978;28;20554;-50
2024/01/11 04:15:03;;;;;;;18.40;11.10;;;-4.30;78.10;;;;;;5018220;28;20517;-50
2024/01/11 04:17:29;;;;;;;25.93;11.70;;;-4.30;81.60;;;;;;5016441;28;20561;-50
2024/01/11 04:19:56;;;;;;;18.50;12.07;;;-4.30;79.20;;;;;;5019700;28;20895;-49
2024/01/11 04:22:23;;;;;;;16.00;11.30;;;-4.30;78.10;;;;;;5026768;28;20536;-50
2024/01/11 04:24:50;;;;;;;20.17;11.53;;;-4.20;78.70;;;;;;5026277;28;20497;-49
2024/01/11 04:27:17;;;;;;;24.77;13.00;;;-4.20;79.00;;;;;;5029106;28;20451;-51
2024/01/11 04:29:43;;;;;;;16.23;11.63;;;-4.20;79.10;;;;;;5029773;28;20517;-49
2024/01/11 04:32:10;;;;;;;19.67;12.83;;;-4.20;83.50;;;;;;5020842;28;20580;-50
2024/01/11 04:34:37;;;;;;;22.50;13.20;;;-4.20;83.70;;;;;;5029284;28;20819;-53
2024/01/11 04:37:04;;;;;;;18.73;12.60;;;-4.20;84.50;;;;;;5025692;28;20600;-51
2024/01/11 04:39:31;;;;;;;20.10;11.73;;;-4.10;87.30;;;;;;5033027;28;20466;-51
2024/01/11 04:42:00;;;;;;;27.70;13.53;;;-4.20;89.00;;;;;;5030562;28;20826;-50
2024/01/11 04:44:27;;;;;;;23.37;13.33;;;-4.10;87.90;;;;;;5033864;28;20983;-49
2024/01/11 04:46:53;;;;;;;22.20;13.50;;;-4.10;88.00;;;;;;5024638;28;20451;-49
2024/01/11 04:49:20;;;;;;;24.23;13.03;;;-4.10;95.30;;;;;;5028067;28;20524;-50
2024/01/11 04:51:46;;;;;;;23.20;13.47;;;-4.10;90.80;;;;;;5032542;28;20474;-49
2024/01/11 04:54:13;;;;;;;22.40;13.90;;;-4.10;89.40;;;;;;5033882;28;20482;-49
2024/01/11 04:56:39;;;;;;;27.03;14.90;;;-4.00;90.80;;;;;;5029452;28;20519;-49
2024/01/11 04:59:07;;;;;;;26.50;14.17;;;-4.00;87.80;;;;;;5026902;28;20555;-49
2024/01/11 05:01:34;;;;;;;25.80;14.93;;;-4.00;91.10;;;;;;5022806;28;20487;-51
2024/01/11 05:04:00;;;;;;;25.10;14.97;;;-4.00;90.90;;;;;;5026639;28;21001;-50
2024/01/11 05:06:27;;;;;;;28.13;15.63;;;-4.00;90.80;;;;;;5025870;28;20533;-50
2024/01/11 05:08:54;;;;;;;28.30;15.80;;;-3.90;89.50;;;;;;5029451;28;20463;-49
2024/01/11 05:11:23;;;;;;;27.47;15.00;;;-3.90;89.80;;;;;;5030986;28;20872;-49
2024/01/11 05:13:50;;;;;;;28.53;14.73;;;-3.90;88.70;;;;;;5030191;28;20470;-50
2024/01/11 05:16:21;;;;;;;26.83;15.80;;;-3.80;87.60;;;;;;5023201;28;20486;-51
2024/01/11 05:18:47;;;;;;;26.90;15.80;;;-3.90;91.60;;;;;;5030190;28;20881;-49
2024/01/11 05:21:14;;;;;;;25.40;14.70;;;-3.80;88.30;;;;;;5031732;28;20474;-51
2024/01/11 05:23:42;;;;;;;31.57;17.60;;;-3.70;88.50;;;;;;5027614;28;20455;-49
2024/01/11 05:26:08;;;;;;;27.57;15.73;;;-3.70;90.50;;;;;;5025307;28;21012;-50
2024/01/11 05:28:35;;;;;;;29.70;16.20;;;-3.70;90.60;;;;;;5031831;28;20526;-51
2024/01/11 05:31:02;;;;;;;28.50;16.50;;;-3.60;86.80;;;;;;5022792;28;20456;-49
2024/01/11 05:33:31;;;;;;;28.40;16.67;;;-3.60;89.50;;;;;;5028673;28;20487;-50
2024/01/11 05:35:58;;;;;;;29.07;16.73;;;-3.50;86.00;;;;;;5027272;28;20971;-51
2024/01/11 05:38:24;;;;;;;28.27;17.20;;;-3.50;85.40;;;;;;5029706;28;20479;-50
2024/01/11 05:40:51;;;;;;;29.30;16.37;;;-3.50;88.50;;;;;;5031624;28;20480;-50
2024/01/11 05:43:18;;;;;;;26.43;16.20;;;-3.50;84.10;;;;;;5025075;28;20450;-50
2024/01/11 05:45:44;;;;;;;24.03;15.20;;;-3.40;83.40;;;;;;5024017;28;20852;-50
2024/01/11 05:48:11;;;;;;;27.20;17.20;;;-3.40;83.50;;;;;;5015168;28;20609;-50
2024/01/11 05:50:39;;;;;;;25.73;16.43;;;-3.40;82.10;;;;;;5028665;28;20960;-49
2024/01/11 05:53:06;;;;;;;26.13;16.10;;;-3.40;82.50;;;;;;5028498;28;20971;-51
2024/01/11 05:55:32;;;;;;;28.00;17.70;;;-3.30;82.60;;;;;;5023820;28;20814;-49
2024/01/11 05:57:59;;;;;;;28.00;16.10;;;-3.30;80.80;;;;;;5029072;28;20483;-49
2024/01/11 06:00:25;;;;;;;30.37;17.70;;;-3.20;79.00;;;;;;5027057;28;20443;-50
2024/01/11 06:02:52;;;;;;;27.40;16.93;;;-3.30;80.40;;;;;;5023368;28;21236;-50
2024/01/11 06:05:18;;;;;;;29.10;16.40;;;-3.20;78.30;;;;;;5023277;28;21011;-51
2024/01/11 06:07:47;;;;;;;29.00;18.27;;;-3.20;78.60;;;;;;5027183;28;20461;-49
2024/01/11 06:10:13;;;;;;;28.60;17.40;;;-3.20;79.10;;;;;;5026737;28;20820;-50
2024/01/11 06:12:41;;;;;;;28.00;16.90;;;-3.20;77.40;;;;;;5029696;28;21147;-50
2024/01/11 06:15:09;;;;;;;28.73;18.30;;;-3.10;76.80;;;;;;5024750;28;20545;-49
2024/01/11 06:17:36;;;;;;;28.20;17.10;;;-3.20;78.10;;;;;;5022017;28;20999;-50
2024/01/11 06:20:03;;;;;;;31.90;19.03;;;-3.20;77.50;;;;;;5026563;28;20794;-50
2024/01/11 06:22:30;;;;;;;31.77;17.30;;;-3.20;74.60;;;;;;5027645;28;20960;-49
2024/01/11 06:24:59;;;;;;;29.30;17.70;;;-3.10;71.40;;;;;;5034579;28;20444;-51
2024/01/11 06:27:26;;;;;;;33.03;19.00;;;-3.10;73.70;;;;;;5026500;28;20534;-49
2024/01/11 06:29:52;;;;;;;34.10;19.60;;;-3.10;73.90;;;;;;5028517;28;20529;-49
2024/01/11 06:32:19;;;;;;;33.20;18.30;;;-3.00;70.20;;;;;;5027141;28;20497;-51
2024/01/11 06:34:47;;;;;;;36.20;17.70;;;-3.00;71.40;;;;;;5020474;28;22558;-50
2024/01/11 06:37:13;;;;;;;48.43;17.97;;;-3.00;69.30;;;;;;5028962;28;20483;-50
2024/01/11 06:39:40;;;;;;;28.97;17.37;;;-3.00;69.30;;;;;;5026523;28;20467;-50
2024/01/11 06:42:08;;;;;;;35.47;19.63;;;-2.90;70.50;;;;;;5027657;28;20475;-50
2024/01/11 06:44:34;;;;;;;29.57;18.40;;;-2.90;69.50;;;;;;5031979;28;20467;-49
2024/01/11 06:47:03;;;;;;;33.40;19.43;;;-2.90;69.70;;;;;;5032600;28;20551;-50
2024/01/11 06:49:30;;;;;;;33.13;19.43;;;-2.80;68.70;;;;;;5029692;28;20466;-50
2024/01/11 06:51:57;;;;;;;33.63;19.30;;;-2.80;68.80;;;;;;5026373;28;20992;-50
2024/01/11 06:54:23;;;;;;;28.20;17.90;;;-2.80;71.70;;;;;;5031461;28;20976;-51
2024/01/11 06:56:50;;;;;;;29.20;17.77;;;-2.80;69.50;;;;;;5032596;28;20466;-49
2024/01/11 06:59:18;;;;;;;31.60;18.77;;;-2.80;71.70;;;;;;5027745;28;20556;-51
2024/01/11 07:01:45;;;;;;;31.23;20.23;;;-2.80;71.50;;;;;;5024125;28;20478;-49
2024/01/11 07:04:12;;;;;;;30.47;18.77;;;-2.70;68.80;;;;;;5036764;28;20466;-50
2024/01/11 07:06:38;;;;;;;30.63;18.77;;;-2.70;67.90;;;;;;5033287;28;20468;-50
2024/01/11 07:09:05;;;;;;;30.97;18.77;;;-2.70;68.00;;;;;;5026158;28;20593;-50
2024/01/11 07:11:32;;;;;;;30.83;19.47;;;-2.60;65.00;;;;;;5032006;28;20486;-50
2024/01/11 07:13:59;;;;;;;32.30;18.23;;;-2.50;65.10;;;;;;5032661;28;20982;-50
2024/01/11 07:16:27;;;;;;;28.20;19.00;;;-2.50;63.60;;;;;;5020174;28;20458;-49
2024/01/11 07:18:54;;;;;;;31.47;19.97;;;-2.50;63.40;;;;;;5018899;28;20511;-49
2024/01/11 07:21:29;;;;;;;32.53;19.60;;;-2.40;64.60;;;;;;5025354;28;20486;-50
2024/01/11 07:23:56;;;;;;;31.17;20.57;;;-2.40;63.50;;;;;;5030200;28;20569;-50
2024/01/11 07:26:23;;;;;;;31.20;19.70;;;-2.40;64.80;;;;;;5024185;28;20459;-50
2024/01/11 07:28:49;;;;;;;30.70;18.93;;;-2.30;62.10;;;;;;5029186;28;20481;-49
2024/01/11 07:31:16;;;;;;;32.27;20.27;;;-2.30;60.60;;;;;;5020222;28;20518;-50
2024/01/11 07:33:45;;;;;;;32.67;21.27;;;-2.20;59.10;;;;;;5032768;28;20462;-49
2024/01/11 07:36:12;;;;;;;30.67;20.87;;;-2.20;57.90;;;;;;5028297;28;20462;-49
2024/01/11 07:38:38;;;;;;;24.57;17.83;;;-2.20;58.40;;;;;;5028134;28;20552;-49
2024/01/11 07:41:05;;;;;;;26.73;17.73;;;-2.10;53.50;;;;;;5024588;28;20463;-51
2024/01/11 07:43:35;;;;;;;29.67;20.13;;;-2.10;51.90;;;;;;5028605;28;20458;-51
2024/01/11 07:46:01;;;;;;;22.60;16.57;;;-2.10;50.90;;;;;;5027146;28;20521;-49
2024/01/11 07:48:28;;;;;;;32.43;22.80;;;-2.00;49.20;;;;;;5028550;28;20459;-50
2024/01/11 07:50:56;;;;;;;28.33;19.10;;;-2.00;49.60;;;;;;5025425;28;20831;-50
2024/01/11 07:53:24;;;;;;;27.33;17.10;;;-2.00;48.50;;;;;;5018653;28;20986;-50
2024/01/11 07:55:50;;;;;;;20.43;14.63;;;-2.00;48.20;;;;;;5028760;28;20840;-51
2024/01/11 07:58:17;;;;;;;28.80;24.60;;;-1.90;46.50;;;;;;5023997;28;20486;-50
2024/01/11 08:00:44;;;;;;;22.60;18.30;;;-1.90;45.70;;;;;;5028652;28;20472;-51
2024/01/11 08:03:11;;;;;;;22.90;17.30;;;-1.80;45.70;;;;;;5025412;28;20518;-54
2024/01/11 08:05:38;;;;;;;32.13;26.00;;;-1.80;45.50;;;;;;5011146;28;20558;-54
2024/01/11 08:08:06;;;;;;;24.03;17.60;;;-1.80;46.80;;;;;;5028524;28;20450;-55
2024/01/11 08:10:33;;;;;;;20.87;14.60;;;-1.80;46.90;;;;;;5028945;28;20471;-55
2024/01/11 08:13:00;;;;;;;27.50;21.47;;;-1.80;45.30;;;;;;5030626;28;20816;-54
2024/01/11 08:15:27;;;;;;;22.40;17.23;;;-1.70;43.70;;;;;;5030315;28;20459;-54
2024/01/11 08:17:54;;;;;;;19.10;14.70;;;-1.70;42.30;;;;;;5018560;28;20532;-55
2024/01/11 08:20:21;;;;;;;21.37;16.97;;;-1.70;43.20;;;;;;5025944;28;20483;-55
2024/01/11 08:22:47;;;;;;;17.60;15.00;;;-1.70;43.60;;;;;;5039928;28;21170;-54
2024/01/11 08:25:15;;;;;;;27.20;19.20;;;-1.70;41.60;;;;;;5031896;28;20535;-55
2024/01/11 08:27:42;;;;;;;27.60;20.93;;;-1.60;40.70;;;;;;5029982;28;20459;-54
2024/01/11 08:30:09;;;;;;;15.10;12.77;;;-1.60;39.20;;;;;;5036229;28;20442;-54
2024/01/11 08:32:38;;;;;;;16.43;14.37;;;-1.60;39.30;;;;;;5018179;23;20882;-56
2024/01/11 08:35:06;;;;;;;18.30;14.90;;;-1.50;37.10;;;;;;5004717;28;20466;-56
2024/01/11 08:37:33;;;;;;;23.73;19.23;;;-1.50;37.40;;;;;;5005304;28;20483;-56
2024/01/11 08:39:59;;;;;;;13.67;12.27;;;-1.40;37.60;;;;;;5002853;28;20460;-57
2024/01/11 08:42:27;;;;;;;17.70;14.03;;;-1.40;38.70;;;;;;5005319;28;20559;-56
2024/01/11 08:44:54;;;;;;;15.10;12.47;;;-1.40;38.50;;;;;;4996577;28;20481;-56
2024/01/11 08:47:21;;;;;;;13.40;12.00;;;-1.40;38.00;;;;;;5009304;28;20463;-56
2024/01/11 08:49:47;;;;;;;14.73;13.13;;;-1.40;41.60;;;;;;5005592;28;20460;-56
2024/01/11 08:52:14;;;;;;;13.53;12.13;;;-1.30;39.60;;;;;;5005796;28;20476;-56
2024/01/11 08:54:41;;;;;;;14.20;12.30;;;-1.30;40.30;;;;;;5001049;28;21057;-56
2024/01/11 08:57:07;;;;;;;13.00;11.67;;;-1.30;40.90;;;;;;5006935;28;20547;-56
2024/01/11 08:59:35;;;;;;;13.60;11.87;;;-1.30;39.50;;;;;;5003878;28;21089;-56
2024/01/11 09:02:01;;;;;;;14.07;12.57;;;-1.20;39.10;;;;;;5007686;28;20539;-56
2024/01/11 09:04:29;;;;;;;13.70;12.13;;;-1.20;38.20;;;;;;5007362;28;20503;-55
2024/01/11 09:06:56;;;;;;;13.50;11.77;;;-1.20;37.70;;;;;;5008448;28;20836;-57
2024/01/11 09:09:23;;;;;;;13.87;12.47;;;-1.30;39.80;;;;;;5009348;28;20542;-56
2024/01/11 09:11:50;;;;;;;14.67;11.27;;;-1.10;38.00;;;;;;5009879;28;21050;-56
2024/01/11 09:14:16;;;;;;;13.67;11.93;;;-1.10;39.00;;;;;;5008792;28;20463;-56
2024/01/11 09:16:45;;;;;;;13.77;12.37;;;-1.20;41.10;;;;;;5011114;28;20463;-56
2024/01/11 09:19:12;;;;;;;17.73;12.53;;;-1.10;38.90;;;;;;5009779;28;20484;-56
2024/01/11 09:21:39;;;;;;;15.00;13.10;;;-1.10;38.50;;;;;;5012727;28;20463;-56
2024/01/11 09:24:05;;;;;;;13.60;12.20;;;-1.20;42.00;;;;;;5011527;28;21019;-56
2024/01/11 09:26:32;;;;;;;15.77;12.67;;;-1.20;39.30;;;;;;5010379;28;22085;-56
2024/01/11 09:28:58;;;;;;;15.90;13.33;;;-1.10;37.90;;;;;;5009106;28;20467;-57
2024/01/11 09:31:25;;;;;;;15.50;12.70;;;-1.10;37.50;;;;;;5013847;28;20460;-57
2024/01/11 09:33:53;;;;;;;13.93;12.50;;;-1.10;37.10;;;;;;5030683;28;20483;-56
2024/01/11 09:36:20;;;;;;;37.10;14.00;;;-1.10;37.40;;;;;;5030188;28;21163;-58
2024/01/11 09:38:48;;;;;;;12.63;11.20;;;-1.10;37.80;;;;;;5029894;28;20902;-56
2024/01/11 09:41:15;;;;;;;16.60;12.50;;;-1.10;38.30;;;;;;5029179;28;21024;-56
2024/01/11 09:43:42;;;;;;;14.07;11.43;;;-1.10;37.70;;;;;;5019024;28;20487;-56
2024/01/11 09:46:11;;;;;;;17.43;12.70;;;-1.10;38.70;;;;;;5000325;28;20929;-56
2024/01/11 09:48:39;;;;;;;15.93;14.23;;;-1.10;36.70;;;;;;5010275;28;20971;-57
2024/01/11 09:51:10;;;;;;;14.60;13.10;;;-1.20;36.40;;;;;;5008891;28;20455;-58
2024/01/11 09:53:39;;;;;;;15.43;13.83;;;-1.10;34.20;;;;;;5009071;28;20483;-58
2024/01/11 09:56:09;;;;;;;18.47;14.67;;;-1.00;34.30;;;;;;5003474;28;20543;-57
2024/01/11 09:58:37;;;;;;;16.90;14.07;;;-1.00;34.30;;;;;;5008059;28;20877;-58
2024/01/11 10:01:09;;;;;;;17.77;15.40;;;-1.00;34.50;;;;;;5004274;28;20504;-59
2024/01/11 10:03:36;;;;;;;15.60;12.97;;;-1.00;35.60;;;;;;5007048;28;21062;-58
2024/01/11 10:06:04;;;;;;;18.07;14.93;;;-0.90;33.80;;;;;;5005674;28;20543;-57
2024/01/11 10:08:33;;;;;;;19.20;16.37;;;-0.90;35.90;;;;;;5009118;28;20452;-57
2024/01/11 10:11:00;;;;;;;18.10;15.07;;;-0.90;37.60;;;;;;5011089;28;20470;-58
2024/01/11 10:13:28;;;;;;;20.37;15.30;;;-0.90;38.10;;;;;;5010715;28;21088;-57
2024/01/11 10:16:07;;;;;;;28.37;19.80;;;-0.90;37.90;;;;;;5006784;28;20961;-57
2024/01/11 10:18:33;;;;;;;20.63;16.60;;;-0.90;38.70;;;;;;5006885;28;20494;-58
2024/01/11 10:21:00;;;;;;;21.33;16.33;;;-0.90;37.10;;;;;;5007734;28;20522;-57
2024/01/11 10:23:28;;;;;;;18.50;16.40;;;-0.80;35.80;;;;;;5006751;28;21001;-58
2024/01/11 10:25:57;;;;;;;21.37;15.27;;;-0.90;37.40;;;;;;5008181;28;20495;-57
2024/01/11 10:28:24;;;;;;;23.50;17.30;;;-0.90;36.00;;;;;;5008222;28;20460;-58
2024/01/11 10:30:52;;;;;;;25.80;19.03;;;-0.90;37.40;;;;;;5009313;28;20487;-58
2024/01/11 10:33:20;;;;;;;18.50;15.37;;;-0.80;35.50;;;;;;5005373;28;20492;-58
2024/01/11 10:35:48;;;;;;;20.30;16.57;;;-0.80;33.50;;;;;;5010445;28;20470;-58
2024/01/11 10:38:15;;;;;;;20.57;16.20;;;-0.80;36.60;;;;;;5006407;28;20516;-58
2024/01/11 10:40:42;;;;;;;19.03;14.93;;;-0.80;37.20;;;;;;5008010;28;20892;-57
2024/01/11 10:43:11;;;;;;;21.07;17.13;;;-0.80;37.70;;;;;;5013043;28;20468;-56
2024/01/11 10:45:39;;;;;;;19.73;15.63;;;-0.80;36.40;;;;;;5005936;28;20474;-54
2024/01/11 10:48:08;;;;;;;20.67;16.50;;;-0.80;36.80;;;;;;5009014;28;20464;-54
2024/01/11 10:50:37;;;;;;;20.50;15.60;;;-0.70;34.90;;;;;;5012030;28;21038;-54
2024/01/11 10:53:11;;;;;;;18.70;15.57;;;-0.70;35.10;;;;;;5006969;28;20851;-54
2024/01/11 10:55:39;;;;;;;22.00;17.17;;;-0.60;34.80;;;;;;5005596;28;20960;-54
2024/01/11 10:58:08;;;;;;;20.50;16.17;;;-0.70;34.40;;;;;;5003927;28;20472;-53
2024/01/11 11:00:36;;;;;;;19.13;16.03;;;-0.70;38.30;;;;;;5007146;28;20495;-54
2024/01/11 11:03:06;;;;;;;20.97;16.87;;;-0.80;39.40;;;;;;5005976;28;20479;-53
2024/01/11 11:05:35;;;;;;;20.37;17.10;;;-0.80;35.70;;;;;;5006369;28;20484;-54
2024/01/11 11:08:02;;;;;;;20.57;16.57;;;-0.80;34.70;;;;;;5008838;28;20468;-53
2024/01/11 11:10:30;;;;;;;21.87;18.07;;;-0.70;33.80;;;;;;5007866;28;20461;-54
2024/01/11 11:12:59;;;;;;;18.63;16.40;;;-0.80;35.80;;;;;;5005171;28;20512;-54
2024/01/11 11:15:28;;;;;;;18.57;15.33;;;-0.80;37.20;;;;;;5008247;28;20460;-54
2024/01/11 11:17:57;;;;;;;22.03;18.37;;;-0.80;34.50;;;;;;5005393;28;20502;-54
2024/01/11 11:20:24;;;;;;;22.83;16.90;;;-0.70;32.80;;;;;;5006413;28;21038;-54
2024/01/11 11:23:04;;;;;;;22.10;17.60;;;-0.70;32.10;;;;;;5007301;28;20606;-54
2024/01/11 11:25:31;;;;;;;20.50;16.57;;;-0.70;33.60;;;;;;5005799;28;20465;-54
2024/01/11 11:27:58;;;;;;;19.90;17.07;;;-0.70;32.50;;;;;;5003099;28;20460;-53
2024/01/11 11:30:25;;;;;;;23.17;17.83;;;-0.70;30.70;;;;;;5007712;28;20504;-54
2024/01/11 11:32:51;;;;;;;24.03;18.40;;;-0.70;30.10;;;;;;5005139;28;21195;-55
2024/01/11 11:35:21;;;;;;;21.07;17.03;;;-0.60;29.50;;;;;;5007078;28;20546;-54
2024/01/11 11:37:48;;;;;;;22.90;16.97;;;-0.60;30.60;;;;;;5004824;28;20463;-55
2024/01/11 11:40:16;;;;;;;23.03;18.10;;;-0.60;31.90;;;;;;5004764;28;20566;-54
2024/01/11 11:42:43;;;;;;;22.87;17.30;;;-0.60;31.40;;;;;;5005937;28;20483;-53
2024/01/11 11:45:11;;;;;;;21.80;17.27;;;-0.50;29.80;;;;;;5003825;28;20491;-55
2024/01/11 11:47:38;;;;;;;21.73;17.50;;;-0.50;32.30;;;;;;5007943;28;20478;-54
2024/01/11 11:50:06;;;;;;;24.50;18.20;;;-0.60;32.90;;;;;;5005639;28;20456;-54
2024/01/11 11:52:35;;;;;;;21.47;16.43;;;-0.50;31.50;;;;;;5006175;28;20482;-54
2024/01/11 11:55:03;;;;;;;20.50;16.27;;;-0.50;31.20;;;;;;5007973;28;20575;-54
2024/01/11 11:57:29;;;;;;;19.07;16.17;;;-0.50;30.50;;;;;;5001389;28;20982;-54
2024/01/11 11:59:58;;;;;;;16.50;14.53;;;-0.40;31.10;;;;;;5005929;28;20483;-55
2024/01/11 12:02:26;;;;;;;16.40;14.20;;;-0.40;30.90;;;;;;5007322;28;20490;-55
2024/01/11 12:04:53;;;;;;;18.70;15.97;;;-0.30;30.40;;;;;;5001288;28;20538;-54
2024/01/11 12:07:21;;;;;;;19.40;15.03;;;-0.40;31.70;;;;;;5004916;28;20468;-54
2024/01/11 12:09:49;;;;;;;15.77;13.33;;;-0.30;30.80;;;;;;5007221;28;20471;-54
2024/01/11 12:12:17;;;;;;;15.07;13.47;;;-0.30;30.80;;;;;;5005882;28;20508;-54
2024/01/11 12:14:44;;;;;;;17.70;13.10;;;-0.30;35.20;;;;;;5006054;28;20514;-53
2024/01/11 12:17:10;;;;;;;16.63;12.93;;;-0.30;33.60;;;;;;5003899;28;20468;-54
2024/01/11 12:19:37;;;;;;;14.60;11.83;;;-0.30;34.00;;;;;;5005345;28;20519;-54
2024/01/11 12:22:04;;;;;;;17.80;13.77;;;-0.20;34.00;;;;;;5004309;28;20487;-54
2024/01/11 12:24:31;;;;;;;13.97;12.03;;;-0.20;38.20;;;;;;5005435;28;20502;-55
2024/01/11 12:26:58;;;;;;;13.20;11.73;;;-0.20;37.20;;;;;;5003115;28;20550;-53
2024/01/11 12:29:25;;;;;;;12.87;10.30;;;-0.10;34.60;;;;;;5006841;28;20452;-53